createdAt,value
2023-05-22T00:02:00.180Z,18.74
2023-05-22T00:04:30.250Z,18.73
2023-05-22T00:06:56.792Z,18.69
2023-05-22T00:09:25.826Z,18.63
2023-05-22T00:11:53.285Z,18.60
2023-05-22T00:14:19.838Z,18.61
2023-05-22T00:16:48.471Z,18.60
2023-05-22T00:19:16.527Z,18.61
2023-05-22T00:21:43.933Z,18.54
2023-05-22T00:24:10.771Z,18.54
2023-05-22T00:26:37.444Z,18.51
2023-05-22T00:29:05.863Z,18.49
2023-05-22T00:31:32.653Z,18.49
2023-05-22T00:33:59.430Z,18.47
2023-05-22T00:36:26.046Z,18.44
2023-05-22T00:38:52.553Z,18.43
2023-05-22T00:41:19.358Z,18.34
2023-05-22T00:43:46.026Z,18.30
2023-05-22T00:46:12.679Z,18.22
2023-05-22T00:48:39.440Z,18.22
2023-05-22T00:51:07.277Z,18.23
2023-05-22T00:53:33.963Z,18.24
2023-05-22T00:56:01.029Z,18.19
2023-05-22T00:58:27.743Z,18.14
2023-05-22T01:00:55.475Z,18.04
2023-05-22T01:03:26.969Z,17.93
2023-05-22T01:05:54.876Z,17.89
2023-05-22T01:08:21.656Z,17.84
2023-05-22T01:10:54.432Z,17.82
2023-05-22T01:13:39.463Z,17.91
2023-05-22T01:16:13.052Z,17.95
2023-05-22T01:19:04.232Z,17.97
2023-05-22T01:21:36.846Z,17.98
2023-05-22T01:24:41.948Z,17.94
2023-05-22T01:27:11.462Z,17.93
2023-05-22T01:29:47.978Z,17.87
2023-05-22T01:32:20.376Z,17.88
2023-05-22T01:34:47.935Z,17.87
2023-05-22T01:37:15.245Z,17.82
2023-05-22T01:39:43.271Z,17.72
2023-05-22T01:42:18.134Z,17.67
2023-05-22T01:44:44.752Z,17.70
2023-05-22T01:47:11.229Z,17.71
2023-05-22T01:49:37.806Z,17.70
2023-05-22T01:52:23.346Z,17.70
2023-05-22T01:54:58.399Z,17.70
2023-05-22T01:57:32.723Z,17.68
2023-05-22T02:00:09.955Z,17.66
2023-05-22T02:02:39.215Z,17.65
2023-05-22T02:05:08.497Z,17.62
2023-05-22T02:07:37.901Z,17.62
2023-05-22T02:10:07.164Z,17.56
2023-05-22T02:12:34.267Z,17.51
2023-05-22T02:15:01.356Z,17.49
2023-05-22T02:17:27.962Z,17.47
2023-05-22T02:19:54.476Z,17.38
2023-05-22T02:22:20.970Z,17.27
2023-05-22T02:24:48.628Z,17.24
2023-05-22T02:27:15.456Z,17.16
2023-05-22T02:29:41.928Z,17.00
2023-05-22T02:32:08.502Z,17.00
2023-05-22T02:34:35.060Z,17.04
2023-05-22T02:37:04.333Z,17.04
2023-05-22T02:39:30.947Z,17.03
2023-05-22T02:41:57.483Z,17.01
2023-05-22T02:44:23.960Z,16.96
2023-05-22T02:46:50.618Z,16.99
2023-05-22T02:49:17.365Z,16.98
2023-05-22T02:51:47.508Z,16.99
2023-05-22T02:54:15.796Z,17.01
2023-05-22T02:56:43.262Z,17.00
2023-05-22T02:59:10.064Z,17.04
2023-05-22T03:01:38.808Z,16.98
2023-05-22T03:04:06.646Z,16.92
2023-05-22T03:06:35.193Z,16.87
2023-05-22T03:09:03.737Z,16.86
2023-05-22T03:11:33.316Z,16.87
2023-05-22T03:13:59.894Z,16.86
2023-05-22T03:16:27.012Z,16.82
2023-05-22T03:19:16.641Z,16.80
2023-05-22T03:21:45.989Z,16.87
2023-05-22T03:24:15.437Z,16.92
2023-05-22T03:26:42.010Z,16.95
2023-05-22T03:29:08.624Z,16.93
2023-05-22T03:31:36.221Z,16.94
2023-05-22T03:34:03.093Z,16.90
2023-05-22T03:36:32.355Z,16.76
2023-05-22T03:38:59.058Z,16.69
2023-05-22T03:41:25.754Z,16.61
2023-05-22T03:43:52.317Z,16.65
2023-05-22T03:46:18.995Z,16.62
2023-05-22T03:48:45.594Z,16.59
2023-05-22T03:51:12.130Z,16.64
2023-05-22T03:53:38.600Z,16.65
2023-05-22T03:56:05.264Z,16.59
2023-05-22T03:58:31.817Z,16.56
2023-05-22T04:00:58.689Z,16.59
2023-05-22T04:03:25.395Z,16.61
2023-05-22T04:05:52.048Z,16.62
2023-05-22T04:08:18.795Z,16.66
2023-05-22T04:10:46.715Z,16.67
2023-05-22T04:13:14.165Z,16.67
2023-05-22T04:15:46.909Z,16.70
2023-05-22T04:18:14.115Z,16.70
2023-05-22T04:20:41.159Z,16.71
2023-05-22T04:23:07.960Z,16.66
2023-05-22T04:25:34.614Z,16.54
2023-05-22T04:28:04.023Z,16.52
2023-05-22T04:30:34.446Z,16.55
2023-05-22T04:33:01.749Z,16.55
2023-05-22T04:35:29.651Z,16.54
2023-05-22T04:38:02.655Z,16.44
2023-05-22T04:40:30.421Z,16.41
2023-05-22T04:42:59.985Z,16.48
2023-05-22T04:45:31.806Z,16.41
2023-05-22T04:47:59.766Z,16.37
2023-05-22T04:50:26.292Z,16.39
2023-05-22T04:52:53.491Z,16.45
2023-05-22T04:55:20.417Z,16.47
2023-05-22T04:57:47.415Z,16.39
2023-05-22T05:00:17.009Z,16.40
2023-05-22T05:02:43.782Z,16.44
2023-05-22T05:05:10.807Z,16.49
2023-05-22T05:07:40.686Z,16.55
2023-05-22T05:10:07.734Z,16.62
2023-05-22T05:12:34.491Z,16.67
2023-05-22T05:15:01.826Z,16.67
2023-05-22T05:17:28.774Z,16.72
2023-05-22T05:19:55.511Z,16.77
2023-05-22T05:22:22.017Z,16.83
2023-05-22T05:24:48.689Z,16.88
2023-05-22T05:27:15.326Z,16.87
2023-05-22T05:29:42.483Z,16.88
2023-05-22T05:32:09.908Z,16.86
2023-05-22T05:34:36.476Z,16.85
2023-05-22T05:37:03.102Z,16.91
2023-05-22T05:39:29.755Z,16.90
2023-05-22T05:41:56.389Z,16.94
2023-05-22T05:44:23.008Z,16.93
2023-05-22T05:46:49.633Z,16.94
2023-05-22T05:49:16.209Z,16.96
2023-05-22T05:51:42.690Z,16.95
2023-05-22T05:54:09.228Z,16.98
2023-05-22T05:56:35.796Z,17.00
2023-05-22T05:59:02.477Z,17.04
2023-05-22T06:01:32.909Z,17.08
2023-05-22T06:04:03.234Z,17.07
2023-05-22T06:06:36.256Z,17.06
2023-05-22T06:09:06.166Z,17.12
2023-05-22T06:11:33.276Z,17.14
2023-05-22T06:14:02.792Z,17.16
2023-05-22T06:16:29.751Z,17.18
2023-05-22T06:18:58.834Z,17.24
2023-05-22T06:21:25.494Z,17.28
2023-05-22T06:23:52.095Z,17.31
2023-05-22T06:26:18.677Z,17.30
2023-05-22T06:28:45.598Z,17.31
2023-05-22T06:31:22.969Z,17.34
2023-05-22T06:33:49.970Z,17.34
2023-05-22T06:36:17.544Z,17.35
2023-05-22T06:38:46.063Z,17.38
2023-05-22T06:41:12.606Z,17.38
2023-05-22T06:43:39.107Z,17.40
2023-05-22T06:46:07.218Z,17.43
2023-05-22T06:48:35.130Z,17.48
2023-05-22T06:51:02.175Z,17.52
2023-05-22T06:53:28.862Z,17.58
2023-05-22T06:55:56.546Z,17.68
2023-05-22T06:58:23.070Z,17.74
2023-05-22T07:00:49.618Z,17.82
2023-05-22T07:03:16.563Z,17.77
2023-05-22T07:05:43.146Z,17.75
2023-05-22T07:08:10.358Z,17.78
2023-05-22T07:10:37.156Z,17.86
2023-05-22T07:13:03.910Z,17.88
2023-05-22T07:15:30.505Z,17.93
2023-05-22T07:17:57.105Z,17.89
2023-05-22T07:20:25.747Z,17.91
2023-05-22T07:22:52.442Z,17.92
2023-05-22T07:25:18.993Z,17.86
2023-05-22T07:27:45.604Z,17.92
2023-05-22T07:30:12.586Z,17.90
2023-05-22T07:32:39.307Z,17.92
2023-05-22T07:35:07.262Z,17.98
2023-05-22T07:37:34.066Z,18.03
2023-05-22T07:40:00.883Z,17.97
2023-05-22T07:42:28.110Z,17.92
2023-05-22T07:44:54.658Z,17.97
2023-05-22T07:47:21.183Z,18.00
2023-05-22T07:49:47.725Z,18.00
2023-05-22T07:52:14.265Z,17.96
2023-05-22T07:54:42.434Z,18.04
2023-05-22T07:57:12.534Z,17.89
2023-05-22T07:59:39.076Z,17.86
2023-05-22T08:02:05.820Z,17.84
2023-05-22T08:04:32.574Z,17.87
2023-05-22T08:06:59.270Z,17.88
2023-05-22T08:09:25.837Z,17.89
2023-05-22T08:11:52.379Z,17.91
2023-05-22T08:14:18.864Z,17.90
2023-05-22T08:16:45.499Z,17.91
2023-05-22T08:19:12.396Z,17.95
2023-05-22T08:21:39.771Z,17.94
2023-05-22T08:24:07.893Z,17.93
2023-05-22T08:26:34.423Z,17.84
2023-05-22T08:29:01.369Z,17.91
2023-05-22T08:31:30.966Z,17.91
2023-05-22T08:34:02.340Z,17.87
2023-05-22T08:36:31.673Z,17.83
2023-05-22T08:38:58.227Z,17.85
2023-05-22T08:41:24.786Z,17.74
2023-05-22T08:43:51.280Z,17.85
2023-05-22T08:46:20.022Z,17.90
2023-05-22T08:48:47.823Z,17.89
2023-05-22T08:51:18.641Z,17.93
2023-05-22T08:53:46.334Z,17.89
2023-05-22T08:56:13.092Z,17.80
2023-05-22T08:58:40.707Z,17.82
2023-05-22T09:01:08.821Z,17.88
2023-05-22T09:03:36.925Z,17.83
2023-05-22T09:06:04.190Z,17.93
2023-05-22T09:08:30.737Z,17.96
2023-05-22T09:10:57.471Z,17.91
2023-05-22T09:13:29.163Z,17.93
2023-05-22T09:16:00.830Z,17.98
2023-05-22T09:18:29.047Z,18.07
2023-05-22T09:20:59.406Z,18.11
2023-05-22T09:23:28.214Z,18.10
2023-05-22T09:25:59.255Z,18.13
2023-05-22T09:28:26.240Z,18.11
2023-05-22T09:30:54.520Z,18.11
2023-05-22T09:33:23.257Z,18.05
2023-05-22T09:35:54.177Z,18.03
2023-05-22T09:38:27.771Z,18.18
2023-05-22T09:40:55.384Z,18.26
2023-05-22T09:43:26.543Z,18.21
2023-05-22T09:46:00.954Z,18.32
2023-05-22T09:48:27.493Z,18.38
2023-05-22T09:50:56.061Z,18.45
2023-05-22T09:53:27.933Z,18.48
2023-05-22T09:55:56.724Z,18.54
2023-05-22T09:58:25.953Z,18.57
2023-05-22T10:00:55.730Z,18.59
2023-05-22T10:03:27.038Z,18.65
2023-05-22T10:05:55.690Z,18.73
2023-05-22T10:08:26.132Z,18.70
2023-05-22T10:10:53.205Z,18.67
2023-05-22T10:13:21.059Z,18.60
2023-05-22T10:15:49.003Z,18.74
2023-05-22T10:18:16.884Z,18.71
2023-05-22T10:20:44.339Z,18.66
2023-05-22T10:23:11.306Z,18.79
2023-05-22T10:25:38.473Z,18.86
2023-05-22T10:28:06.307Z,18.95
2023-05-22T10:30:47.750Z,18.91
2023-05-22T10:33:22.262Z,19.01
2023-05-22T10:36:08.646Z,18.97
2023-05-22T10:38:50.390Z,18.99
2023-05-22T10:41:17.518Z,19.03
2023-05-22T10:43:48.291Z,19.09
2023-05-22T10:46:15.131Z,19.23
2023-05-22T10:48:45.697Z,19.35
2023-05-22T10:51:19.388Z,19.19
2023-05-22T10:53:53.409Z,19.28
2023-05-22T10:56:20.698Z,19.45
2023-05-22T10:59:05.163Z,19.52
2023-05-22T11:01:37.657Z,19.47
2023-05-22T11:04:04.503Z,19.26
2023-05-22T11:06:41.942Z,19.10
2023-05-22T11:09:30.192Z,19.20
2023-05-22T11:12:22.438Z,19.24
2023-05-22T11:14:58.139Z,19.14
2023-05-22T11:17:29.066Z,19.10
2023-05-22T11:20:01.994Z,19.14
2023-05-22T11:22:41.940Z,19.20
2023-05-22T11:25:16.682Z,19.36
2023-05-22T11:27:43.880Z,19.46
2023-05-22T11:30:11.766Z,19.50
2023-05-22T11:32:39.890Z,19.60
2023-05-22T11:35:08.485Z,19.73
2023-05-22T11:37:39.703Z,19.66
2023-05-22T11:40:07.256Z,19.66
2023-05-22T11:42:33.905Z,19.60
2023-05-22T11:45:00.673Z,19.70
2023-05-22T11:47:29.110Z,19.84
2023-05-22T11:50:03.003Z,19.92
2023-05-22T11:52:33.570Z,20.07
2023-05-22T11:55:00.395Z,20.29
2023-05-22T11:57:27.167Z,20.49
2023-05-22T11:59:54.279Z,20.85
2023-05-22T12:02:20.956Z,21.05
2023-05-22T12:04:47.595Z,21.16
2023-05-22T12:07:15.342Z,21.37
2023-05-22T12:09:42.988Z,21.51
2023-05-22T12:12:11.538Z,21.53
2023-05-22T12:14:38.270Z,21.91
2023-05-22T12:17:05.045Z,22.08
2023-05-22T12:19:32.549Z,22.16
2023-05-22T12:21:59.445Z,22.49
2023-05-22T12:24:26.147Z,22.50
2023-05-22T12:26:53.972Z,22.78
2023-05-22T12:29:23.735Z,22.78
2023-05-22T12:31:50.799Z,22.82
2023-05-22T12:34:18.762Z,22.66
2023-05-22T12:36:46.907Z,22.81
2023-05-22T12:39:17.469Z,22.94
2023-05-22T12:41:45.157Z,23.25
2023-05-22T12:44:12.132Z,23.39
2023-05-22T12:46:38.821Z,23.64
2023-05-22T12:49:05.614Z,23.68
2023-05-22T12:51:32.818Z,23.70
2023-05-22T12:54:00.155Z,23.00
2023-05-22T12:56:27.324Z,23.11
2023-05-22T12:58:53.869Z,23.19
2023-05-22T13:01:21.733Z,23.53
2023-05-22T13:03:48.336Z,23.38
2023-05-22T13:06:15.017Z,23.42
2023-05-22T13:08:41.517Z,23.68
2023-05-22T13:11:08.023Z,23.74
2023-05-22T13:13:34.609Z,23.74
2023-05-22T13:16:01.134Z,23.69
2023-05-22T13:18:27.695Z,23.63
2023-05-22T13:20:56.429Z,23.99
2023-05-22T13:23:23.169Z,23.84
2023-05-22T13:25:49.812Z,23.75
2023-05-22T13:28:16.333Z,23.44
2023-05-22T13:30:42.833Z,23.68
2023-05-22T13:33:09.373Z,24.08
2023-05-22T13:35:36.001Z,23.39
2023-05-22T13:38:02.654Z,23.29
2023-05-22T13:40:29.119Z,23.72
2023-05-22T13:42:55.753Z,24.15
2023-05-22T13:45:22.348Z,24.39
2023-05-22T13:47:49.732Z,24.25
2023-05-22T13:50:16.356Z,23.71
2023-05-22T13:52:42.828Z,23.61
2023-05-22T13:55:09.659Z,23.98
2023-05-22T13:57:37.030Z,24.25
2023-05-22T14:00:04.213Z,24.14
2023-05-22T14:02:30.817Z,24.01
2023-05-22T14:04:57.423Z,24.26
2023-05-22T14:07:23.938Z,24.07
2023-05-22T14:09:50.504Z,24.21
2023-05-22T14:12:16.985Z,24.31
2023-05-22T14:14:43.492Z,24.27
2023-05-22T14:17:10.075Z,24.15
2023-05-22T14:19:38.611Z,24.15
2023-05-22T14:22:05.359Z,24.29
2023-05-22T14:24:31.905Z,24.18
2023-05-22T14:26:58.674Z,24.16
2023-05-22T14:29:25.931Z,24.40
2023-05-22T14:32:01.151Z,24.49
2023-05-22T14:34:27.720Z,24.23
2023-05-22T14:36:56.558Z,24.26
2023-05-22T14:39:24.668Z,24.30
2023-05-22T14:41:52.801Z,24.40
2023-05-22T14:44:19.649Z,24.36
2023-05-22T14:46:46.428Z,24.41
2023-05-22T14:49:13.059Z,24.40
2023-05-22T14:51:39.661Z,24.28
2023-05-22T14:54:06.936Z,24.29
2023-05-22T14:56:33.709Z,24.30
2023-05-22T14:59:00.485Z,24.42
2023-05-22T15:01:27.131Z,24.34
2023-05-22T15:03:53.900Z,24.42
2023-05-22T15:06:20.420Z,24.33
2023-05-22T15:08:46.919Z,24.21
2023-05-22T15:11:13.534Z,23.82
2023-05-22T15:13:40.117Z,23.83
2023-05-22T15:16:08.734Z,24.02
2023-05-22T15:18:35.332Z,23.99
2023-05-22T15:21:01.933Z,23.96
2023-05-22T15:23:28.403Z,23.92
2023-05-22T15:25:55.079Z,23.91
2023-05-22T15:28:21.972Z,23.96
2023-05-22T15:30:48.725Z,23.60
2023-05-22T15:33:15.915Z,23.57
2023-05-22T15:35:44.203Z,23.64
2023-05-22T15:38:13.197Z,23.69
2023-05-22T15:40:40.912Z,23.72
2023-05-22T15:43:07.980Z,23.77
2023-05-22T15:45:37.121Z,23.67
2023-05-22T15:48:05.121Z,23.72
2023-05-22T15:50:32.472Z,23.46
2023-05-22T15:53:00.241Z,23.47
2023-05-22T15:55:26.902Z,23.58
2023-05-22T15:57:53.517Z,23.41
2023-05-22T16:00:21.440Z,23.53
2023-05-22T16:02:49.345Z,23.56
2023-05-22T16:05:16.121Z,23.68
2023-05-22T16:07:43.032Z,23.83
2023-05-22T16:10:10.681Z,23.89
2023-05-22T16:12:39.606Z,23.79
2023-05-22T16:15:07.282Z,23.67
2023-05-22T16:17:33.941Z,23.63
2023-05-22T16:20:00.600Z,23.48
2023-05-22T16:22:36.645Z,23.42
2023-05-22T16:25:07.720Z,23.38
2023-05-22T16:27:34.297Z,23.35
2023-05-22T16:30:02.616Z,23.40
2023-05-22T16:32:29.758Z,23.53
2023-05-22T16:34:56.274Z,23.62
2023-05-22T16:37:23.752Z,23.46
2023-05-22T16:39:50.351Z,23.50
2023-05-22T16:42:17.539Z,23.55
2023-05-22T16:44:44.240Z,23.64
2023-05-22T16:47:11.538Z,23.50
2023-05-22T16:49:40.349Z,23.34
2023-05-22T16:52:06.923Z,23.35
2023-05-22T16:54:33.569Z,23.21
2023-05-22T16:57:00.231Z,23.21
2023-05-22T16:59:26.823Z,23.20
2023-05-22T17:01:53.403Z,23.19
2023-05-22T17:04:20.703Z,23.22
2023-05-22T17:06:48.994Z,23.22
2023-05-22T17:09:15.580Z,23.12
2023-05-22T17:11:42.122Z,23.02
2023-05-22T17:14:08.629Z,22.91
2023-05-22T17:16:35.332Z,22.76
2023-05-22T17:19:02.036Z,22.72
2023-05-22T17:21:28.824Z,22.60
2023-05-22T17:23:55.331Z,22.58
2023-05-22T17:26:21.968Z,22.60
2023-05-22T17:28:48.620Z,22.47
2023-05-22T17:31:15.213Z,22.45
2023-05-22T17:33:43.335Z,22.26
2023-05-22T17:36:09.901Z,22.08
2023-05-22T17:38:37.506Z,22.04
2023-05-22T17:41:04.214Z,21.92
2023-05-22T17:43:34.925Z,21.92
2023-05-22T17:46:02.089Z,21.85
2023-05-22T17:48:28.697Z,21.79
2023-05-22T17:50:55.638Z,21.88
2023-05-22T17:53:22.150Z,21.73
2023-05-22T17:55:50.879Z,21.55
2023-05-22T17:58:17.625Z,21.34
2023-05-22T18:00:45.686Z,21.26
2023-05-22T18:03:13.082Z,21.15
2023-05-22T18:05:39.796Z,21.10
2023-05-22T18:08:06.379Z,21.07
2023-05-22T18:10:32.901Z,20.98
2023-05-22T18:12:59.539Z,20.99
2023-05-22T18:15:26.144Z,21.01
2023-05-22T18:17:52.792Z,20.87
2023-05-22T18:20:20.168Z,20.86
2023-05-22T18:22:49.363Z,20.81
2023-05-22T18:25:16.098Z,20.75
2023-05-22T18:27:43.003Z,20.60
2023-05-22T18:30:10.187Z,20.62
2023-05-22T18:32:37.052Z,20.62
2023-05-22T18:35:04.682Z,20.48
2023-05-22T18:37:32.308Z,20.42
2023-05-22T18:39:59.112Z,20.45
2023-05-22T18:42:26.069Z,20.44
2023-05-22T18:44:52.802Z,20.41
2023-05-22T18:47:19.334Z,20.36
2023-05-22T18:49:46.303Z,20.32
2023-05-22T18:52:13.048Z,20.38
2023-05-22T18:54:39.657Z,20.43
2023-05-22T18:57:06.589Z,20.36
2023-05-22T18:59:33.133Z,20.44
2023-05-22T19:01:59.656Z,20.36
2023-05-22T19:04:26.428Z,20.27
2023-05-22T19:06:53.830Z,20.27
2023-05-22T19:09:20.769Z,20.35
2023-05-22T19:11:47.609Z,20.33
2023-05-22T19:14:15.337Z,20.36
2023-05-22T19:16:43.909Z,20.38
2023-05-22T19:19:14.770Z,20.31
2023-05-22T19:21:41.687Z,20.33
2023-05-22T19:24:08.481Z,20.31
2023-05-22T19:26:35.368Z,20.34
2023-05-22T19:29:02.188Z,20.34
2023-05-22T19:31:29.777Z,20.30
2023-05-22T19:33:56.886Z,20.28
2023-05-22T19:36:23.790Z,20.27
2023-05-22T19:38:53.207Z,20.29
2023-05-22T19:41:20.702Z,20.20
2023-05-22T19:43:47.570Z,20.15
2023-05-22T19:46:14.755Z,20.12
2023-05-22T19:48:41.676Z,20.11
2023-05-22T19:51:08.796Z,20.13
2023-05-22T19:53:36.636Z,20.09
2023-05-22T19:56:03.579Z,20.07
2023-05-22T19:58:30.656Z,20.08
2023-05-22T20:00:57.511Z,20.06
2023-05-22T20:03:24.599Z,20.04
2023-05-22T20:05:55.170Z,19.99
2023-05-22T20:08:22.611Z,19.96
2023-05-22T20:10:49.639Z,19.82
2023-05-22T20:13:16.447Z,19.74
2023-05-22T20:15:43.066Z,19.63
2023-05-22T20:18:12.589Z,19.62
2023-05-22T20:20:39.150Z,19.58
2023-05-22T20:23:05.813Z,19.56
2023-05-22T20:25:32.363Z,19.58
2023-05-22T20:27:58.912Z,19.60
2023-05-22T20:30:25.471Z,19.57
2023-05-22T20:32:52.075Z,19.57
2023-05-22T20:35:20.109Z,19.39
2023-05-22T20:37:47.294Z,19.33
2023-05-22T20:40:15.047Z,19.25
2023-05-22T20:42:46.137Z,19.18
2023-05-22T20:45:14.755Z,19.12
2023-05-22T20:47:42.815Z,19.06
2023-05-22T20:50:09.887Z,19.07
2023-05-22T20:52:39.946Z,19.09
2023-05-22T20:55:07.354Z,19.07
2023-05-22T20:57:34.622Z,19.03
2023-05-22T21:00:01.541Z,18.95
2023-05-22T21:02:28.235Z,18.93
2023-05-22T21:04:54.795Z,18.88
2023-05-22T21:07:21.341Z,18.84
2023-05-22T21:09:47.860Z,18.78
2023-05-22T21:12:14.438Z,18.66
2023-05-22T21:14:41.486Z,18.65
2023-05-22T21:17:08.100Z,18.61
2023-05-22T21:19:34.715Z,18.63
2023-05-22T21:22:01.403Z,18.65
2023-05-22T21:24:27.964Z,18.61
2023-05-22T21:26:54.462Z,18.57
2023-05-22T21:29:20.976Z,18.53
2023-05-22T21:31:47.571Z,18.25
2023-05-22T21:34:14.324Z,18.21
2023-05-22T21:36:41.229Z,18.20
2023-05-22T21:39:07.739Z,18.16
2023-05-22T21:41:34.680Z,18.08
2023-05-22T21:44:01.240Z,18.02
2023-05-22T21:46:27.847Z,17.97
2023-05-22T21:48:54.523Z,18.03
2023-05-22T21:51:21.138Z,17.93
2023-05-22T21:53:47.860Z,17.91
2023-05-22T21:56:14.434Z,17.86
2023-05-22T21:58:40.925Z,17.89
2023-05-22T22:01:07.467Z,17.91
2023-05-22T22:03:34.093Z,17.83
2023-05-22T22:06:00.657Z,17.78
2023-05-22T22:08:28.438Z,17.76
2023-05-22T22:10:55.460Z,17.73
2023-05-22T22:13:22.018Z,17.74
2023-05-22T22:15:48.494Z,17.73
2023-05-22T22:18:15.811Z,17.72
2023-05-22T22:20:44.894Z,17.69
2023-05-22T22:23:12.178Z,17.61
2023-05-22T22:25:39.166Z,17.58
2023-05-22T22:28:07.220Z,17.56
2023-05-22T22:30:34.037Z,17.55
2023-05-22T22:33:00.936Z,17.49
2023-05-22T22:35:31.188Z,17.49
2023-05-22T22:37:58.241Z,17.46
2023-05-22T22:40:26.660Z,17.48
2023-05-22T22:42:53.649Z,17.48
2023-05-22T22:45:20.344Z,17.47
2023-05-22T22:47:47.356Z,17.43
2023-05-22T22:50:13.951Z,17.42
2023-05-22T22:52:45.398Z,17.44
2023-05-22T22:55:12.403Z,17.45
2023-05-22T22:57:39.122Z,17.36
2023-05-22T23:00:09.278Z,17.32
2023-05-22T23:02:35.794Z,17.18
2023-05-22T23:05:02.426Z,17.13
2023-05-22T23:07:28.989Z,17.10
2023-05-22T23:09:55.477Z,17.04
2023-05-22T23:12:21.973Z,16.98
2023-05-22T23:14:50.500Z,16.91
2023-05-22T23:17:17.026Z,16.81
2023-05-22T23:19:43.497Z,16.84
2023-05-22T23:22:10.039Z,16.72
2023-05-22T23:24:36.511Z,16.62
2023-05-22T23:27:03.360Z,16.58
2023-05-22T23:29:29.827Z,16.60
2023-05-22T23:31:56.548Z,16.57
2023-05-22T23:34:23.205Z,16.53
2023-05-22T23:36:49.710Z,16.40
2023-05-22T23:39:16.290Z,16.44
2023-05-22T23:41:42.772Z,16.44
2023-05-22T23:44:09.319Z,16.30
2023-05-22T23:46:37.206Z,16.31
2023-05-22T23:49:03.770Z,16.25
2023-05-22T23:51:31.234Z,16.27
2023-05-22T23:53:57.750Z,16.37
2023-05-22T23:56:24.293Z,16.39
2023-05-22T23:58:50.792Z,16.36
